Terminal Aerodrome Forecast
Issued by NWS Buffalo, NY

Home | Current Version | Previous Version | Text Only | Print | Product List | Glossary On
Versions: 1 2 3 4 5 6 7 8 9 10 11 12 13 14 15 16 17 18 19 20 21 22 23 24
000
FTUS41 KBUF 131700 RRA
TAFROC
TAF
KROC 131742Z 1318/1418 23015KT P6SM -SHRA BKN030
      TEMPO 1318/1321 2SM -TSRA BKN025CB
     FM132100 25012KT P6SM BKN045
     FM140000 25008KT P6SM SCT250
     FM140500 24005KT P6SM SCT050
     FM140800 VRB03KT P6SM SCT250=

USA.gov is the U.S. government's official web portal to all federal, state and local government web resources and services.